Flight Track Log - Related Links

Times and Time Zones

All times are in EDT time to prevent confusion due to time zone crossing. See the LOT334 flight status page for this flight to view local times or setup timezone preferences in your user account.

Time Position Orientation Groundspeed Altitude Reporting Facility
EDT Latitude Longitude Course Direction KTS MPH feet Rate Location/Type
Tue 01:29:04 AM 49.1129 2.4151 43° Northeast 1 1 4,900  Level FlightAware UK
Tue 01:29:22 AM 49.1355 2.4474 43° Northeast 1 1 5,000 333 Climbing FlightAware UK
Tue 01:31:00 AM 49.1956 2.6813 68° East  Level Estimated
Tue 01:38:00 AM 49.4477 3.6901 69° East  Level Estimated
Tue 01:39:00 AM 49.4830 3.8351 69° East  Level Estimated
Tue 01:40:00 AM 49.5181 3.9802 70° East  Level Estimated
Tue 01:41:00 AM 49.5530 4.1256 70° East  Level Estimated
Tue 01:42:00 AM 49.5878 4.2712 70° East  Level Estimated
Tue 01:43:00 AM 49.6224 4.4170 70° East  Level Estimated
Tue 01:44:00 AM 49.6567 4.5630 70° East  Level Estimated
Tue 01:45:00 AM 49.6909 4.7091 70° East  Level Estimated
Tue 01:46:00 AM 49.7249 4.8555 70° East  Level Estimated
Tue 01:47:00 AM 49.7588 5.0022 70° East  Level Estimated
Tue 01:48:00 AM 49.7924 5.1490 70° East  Level Estimated
Tue 01:49:00 AM 49.8259 5.2960 71° East  Level Estimated
Tue 01:50:00 AM 49.8591 5.4432 71° East  Level Estimated
Tue 01:51:00 AM 49.8922 5.5906 71° East  Level Estimated
Tue 01:52:00 AM 49.9251 5.7382 71° East  Level Estimated
Tue 01:53:00 AM 49.9579 5.8861 71° East  Level Estimated
Tue 01:54:00 AM 49.9904 6.0341 71° East  Level Estimated
Tue 01:55:00 AM 50.0227 6.1823 71° East  Level Estimated
Tue 01:56:00 AM 50.0549 6.3307 71° East  Level Estimated
Tue 01:57:00 AM 50.0868 6.4794 71° East  Level Estimated
Tue 01:58:00 AM 50.1186 6.6282 72° East  Level Estimated
Tue 01:59:00 AM 50.1502 6.7772 72° East  Level Estimated
Tue 02:00:00 AM 50.1815 6.9264 72° East  Level Estimated
Tue 02:01:00 AM 50.2127 7.0758 72° East  Level Estimated
Tue 02:02:00 AM 50.2437 7.2254 72° East  Level Estimated
Tue 02:03:00 AM 50.2745 7.3752 72° East  Level Estimated
Tue 02:04:00 AM 50.3052 7.5252 72° East  Level Estimated
Tue 02:05:00 AM 50.3356 7.6754 72° East  Level Estimated
Tue 02:06:00 AM 50.3658 7.8257 72° East  Level Estimated
Tue 02:07:00 AM 50.3959 7.9763 73° East  Level Estimated
Tue 02:08:00 AM 50.4257 8.1271 73° East  Level Estimated
Tue 02:09:00 AM 50.4553 8.2780 73° East  Level Estimated
Tue 02:10:00 AM 50.4848 8.4292 73° East  Level Estimated
Tue 02:11:00 AM 50.5140 8.5805 73° East  Level Estimated
Tue 02:12:00 AM 50.5431 8.7320 73° East  Level Estimated
Tue 02:13:00 AM 50.5720 8.8837 73° East  Level Estimated
Tue 02:14:00 AM 50.6006 9.0356 73° East  Level Estimated
Tue 02:15:00 AM 50.6291 9.1876 74° East  Level Estimated
Tue 02:16:00 AM 50.6574 9.3399 74° East  Level Estimated
Tue 02:17:00 AM 50.6854 9.4923 74° East  Level Estimated
Tue 02:18:00 AM 50.7133 9.6449 74° East  Level Estimated
Tue 02:19:00 AM 50.7410 9.7977 74° East  Level Estimated
Tue 02:20:00 AM 50.7684 9.9507 74° East  Level Estimated
Tue 02:21:00 AM 50.7957 10.1038 74° East  Level Estimated
Tue 02:22:00 AM 50.8228 10.2572 74° East  Level Estimated
Tue 02:23:00 AM 50.8497 10.4107 74° East  Level Estimated
Tue 02:24:00 AM 50.8763 10.5644 75° East  Level Estimated
Tue 02:25:00 AM 50.9028 10.7182 75° East  Level Estimated
Tue 02:26:00 AM 50.9291 10.8723 75° East  Level Estimated
Tue 02:27:00 AM 50.9551 11.0265 75° East  Level Estimated
Tue 02:28:00 AM 50.9810 11.1809 75° East  Level Estimated
Tue 02:29:00 AM 51.0066 11.3354 75° East  Level Estimated
Tue 02:30:00 AM 51.0321 11.4901 75° East  Level Estimated
Tue 02:31:00 AM 51.0573 11.6450 75° East  Level Estimated
Tue 02:32:00 AM 51.0824 11.8001 76° East  Level Estimated
Tue 02:33:00 AM 51.1072 11.9553 76° East  Level Estimated
Tue 02:34:00 AM 51.1318 12.1107 76° East  Level Estimated
Tue 02:35:00 AM 51.1562 12.2662 76° East  Level Estimated
Tue 02:36:00 AM 51.1805 12.4220 76° East  Level Estimated
Tue 02:37:00 AM 51.2045 12.5779 76° East  Level Estimated
Tue 02:38:00 AM 51.2283 12.7339 76° East  Level Estimated
Tue 02:39:00 AM 51.2519 12.8901 76° East  Level Estimated
Tue 02:40:00 AM 51.2752 13.0465 76° East  Level Estimated
Tue 02:41:00 AM 51.2984 13.2030 77° East  Level Estimated
Tue 02:42:00 AM 51.3214 13.3597 77° East  Level Estimated
Tue 02:43:00 AM 51.3442 13.5165 77° East  Level Estimated
Tue 02:44:00 AM 51.3667 13.6735 77° East  Level Estimated
Tue 02:45:00 AM 51.3890 13.8307 77° East  Level Estimated
Tue 02:46:00 AM 51.4112 13.9880 77° East  Level Estimated
Tue 02:47:00 AM 51.4331 14.1454 77° East  Level Estimated
Tue 02:48:00 AM 51.4548 14.3030 77° East  Level Estimated
Tue 02:49:00 AM 51.4763 14.4608 78° East  Level Estimated
Tue 02:50:00 AM 51.4976 14.6187 78° East  Level Estimated
Tue 02:51:00 AM 51.5187 14.7767 78° East  Level Estimated
Tue 02:52:00 AM 51.5395 14.9349 78° East  Level Estimated
Tue 02:53:00 AM 51.5602 15.0933 78° East  Level Estimated
Tue 02:54:00 AM 51.5806 15.2517 78° East  Level Estimated
Tue 02:55:00 AM 51.6008 15.4104 78° East  Level Estimated
Tue 02:56:00 AM 51.6208 15.5691 78° East  Level Estimated
Tue 02:57:00 AM 51.6406 15.7280 79° East  Level Estimated
Tue 02:58:00 AM 51.6602 15.8871 79° East  Level Estimated
Tue 02:59:00 AM 51.6796 16.0462 79° East  Level Estimated
Tue 03:00:00 AM 51.6987 16.2056 79° East  Level Estimated
Tue 03:01:00 AM 51.7176 16.3650 79° East  Level Estimated
Tue 03:02:00 AM 51.7363 16.5246 79° East  Level Estimated
Tue 03:03:00 AM 51.7548 16.6843 79° East  Level Estimated
Tue 03:04:00 AM 51.7731 16.8441 79° East  Level Estimated
Tue 03:05:00 AM 51.7912 17.0041 80° East  Level Estimated
Tue 03:06:00 AM 51.8090 17.1642 80° East  Level Estimated
Tue 03:07:00 AM 51.8267 17.3244 80° East  Level Estimated
Tue 03:08:00 AM 51.8441 17.4848 80° East  Level Estimated
Tue 03:09:00 AM 51.8613 17.6453 80° East  Level Estimated
Tue 03:10:00 AM 51.8782 17.8058 80° East  Level Estimated
Tue 03:11:00 AM 51.8950 17.9666 80° East  Level Estimated
Tue 03:12:00 AM 51.9115 18.1274 80° East  Level Estimated
Tue 03:13:00 AM 51.9279 18.2883 81° East  Level Estimated
Tue 03:14:00 AM 51.9440 18.4494 81° East  Level Estimated
Tue 03:15:00 AM 51.9598 18.6106 81° East  Level Estimated
Tue 03:16:00 AM 51.9755 18.7719 81° East  Level Estimated
Tue 03:17:00 AM 51.9909 18.9333 81° East  Level Estimated
Tue 03:18:00 AM 52.0062 19.0948 81° East  Level Estimated
Tue 03:19:00 AM 52.0211 19.2564 81° East  Level Estimated
Tue 03:20:00 AM 52.0359 19.4182 81° East  Level Estimated
Tue 03:21:00 AM 52.0505 19.5800 82° East  Level Estimated
Tue 03:22:00 AM 52.0648 19.7420 82° East  Level Estimated
Tue 03:23:00 AM 52.0789 19.9040 82° East  Level Estimated
Tue 03:24:00 AM 52.0928 20.0662 82° East  Level Estimated
Tue 03:25:00 AM 52.1065 20.2284 82° East  Level Estimated
Tue 03:26:00 AM 52.1199 20.3908 82° East  Level Estimated
Tue 03:27:00 AM 52.1331 20.5532 82° East  Level Estimated
Tue 03:28:00 AM 52.1461 20.7158 83° East  Level Estimated
Tue 03:29:00 AM 52.1589 20.8784 83° East  Level Estimated
Tue 03:30:00 AM 52.1657 20.9671 83° East  Level Estimated
Tue 03:31:00 AM 52.1657 20.9671 90° East  Level Estimated
Tue 03:32:00 AM 52.1657 20.9671 90° East  Level Estimated
Tue 03:33:00 AM 52.1657 20.9671 90° East  Level Estimated
Tue 03:34:00 AM 52.1657 20.9671 90° East  Level Estimated
Tue 03:35:00 AM 52.1657 20.9671 90° East  Level Estimated
Tue 03:36:00 AM 52.1657 20.9671 90° East  Level Estimated
Tue 03:37:00 AM 52.1657 20.9671 90° East  Level Estimated
Tue 03:38:00 AM 52.1657 20.9671 90° East  Level Estimated
Tue 03:39:00 AM 52.1657 20.9671 90° East  Level Estimated
Tue 03:40:00 AM 52.1657 20.9671 90° East  Level Estimated
Tue 03:41:00 AM 52.1657 20.9671 90° East  Level Estimated

Login

Don't have an account? Register now (free) for customized features, flight alerts, and more!